sensor_id;sensor_type;location;lat;lon;timestamp;temperature;humidity
3256;DHT22;1640;48.504;9.224;2023-05-01T00:00:26;10.90;31.50
3256;DHT22;1640;48.504;9.224;2023-05-01T00:02:54;10.80;28.60
3256;DHT22;1640;48.504;9.224;2023-05-01T00:05:22;10.80;28.20
3256;DHT22;1640;48.504;9.224;2023-05-01T00:07:50;10.80;29.10
3256;DHT22;1640;48.504;9.224;2023-05-01T00:10:17;10.70;29.40
3256;DHT22;1640;48.504;9.224;2023-05-01T00:12:45;10.80;30.70
3256;DHT22;1640;48.504;9.224;2023-05-01T00:15:13;10.70;30.30
3256;DHT22;1640;48.504;9.224;2023-05-01T00:17:41;10.70;29.00
3256;DHT22;1640;48.504;9.224;2023-05-01T00:20:09;10.60;24.70
3256;DHT22;1640;48.504;9.224;2023-05-01T00:22:38;10.60;23.80
3256;DHT22;1640;48.504;9.224;2023-05-01T00:25:07;10.60;27.60
3256;DHT22;1640;48.504;9.224;2023-05-01T00:27:35;10.50;25.20
3256;DHT22;1640;48.504;9.224;2023-05-01T00:30:05;10.50;24.90
3256;DHT22;1640;48.504;9.224;2023-05-01T00:32:33;10.50;25.40
3256;DHT22;1640;48.504;9.224;2023-05-01T00:35:01;10.50;24.60
3256;DHT22;1640;48.504;9.224;2023-05-01T00:37:28;10.50;24.90
3256;DHT22;1640;48.504;9.224;2023-05-01T00:39:57;10.60;27.50
3256;DHT22;1640;48.504;9.224;2023-05-01T00:42:25;10.60;28.50
3256;DHT22;1640;48.504;9.224;2023-05-01T00:44:52;10.60;28.40
3256;DHT22;1640;48.504;9.224;2023-05-01T00:47:20;10.70;27.50
3256;DHT22;1640;48.504;9.224;2023-05-01T00:49:48;10.70;26.40
3256;DHT22;1640;48.504;9.224;2023-05-01T00:52:16;10.80;29.10
3256;DHT22;1640;48.504;9.224;2023-05-01T00:54:44;10.80;27.50
3256;DHT22;1640;48.504;9.224;2023-05-01T00:57:18;10.80;27.90
3256;DHT22;1640;48.504;9.224;2023-05-01T00:59:46;10.80;25.80
3256;DHT22;1640;48.504;9.224;2023-05-01T01:02:14;10.90;26.70
3256;DHT22;1640;48.504;9.224;2023-05-01T01:04:44;10.90;26.70
3256;DHT22;1640;48.504;9.224;2023-05-01T01:07:18;10.90;28.40
3256;DHT22;1640;48.504;9.224;2023-05-01T01:09:58;10.90;27.90
3256;DHT22;1640;48.504;9.224;2023-05-01T01:12:35;10.90;25.60
3256;DHT22;1640;48.504;9.224;2023-05-01T01:15:12;10.90;27.70
3256;DHT22;1640;48.504;9.224;2023-05-01T01:17:49;10.80;28.00
3256;DHT22;1640;48.504;9.224;2023-05-01T01:20:31;10.80;28.90
3256;DHT22;1640;48.504;9.224;2023-05-01T01:23:32;10.80;28.00
3256;DHT22;1640;48.504;9.224;2023-05-01T01:26:20;10.80;26.50
3256;DHT22;1640;48.504;9.224;2023-05-01T01:32:10;10.70;29.40
3256;DHT22;1640;48.504;9.224;2023-05-01T01:34:43;10.70;27.40
3256;DHT22;1640;48.504;9.224;2023-05-01T01:37:18;10.70;26.30
3256;DHT22;1640;48.504;9.224;2023-05-01T01:39:51;10.80;24.90
3256;DHT22;1640;48.504;9.224;2023-05-01T01:42:21;10.80;25.90
3256;DHT22;1640;48.504;9.224;2023-05-01T01:44:54;10.80;25.60
3256;DHT22;1640;48.504;9.224;2023-05-01T01:47:25;10.80;25.80
3256;DHT22;1640;48.504;9.224;2023-05-01T01:49:56;10.80;25.70
3256;DHT22;1640;48.504;9.224;2023-05-01T01:52:25;10.90;24.40
3256;DHT22;1640;48.504;9.224;2023-05-01T01:54:58;10.90;28.60
3256;DHT22;1640;48.504;9.224;2023-05-01T01:57:28;10.90;27.20
3256;DHT22;1640;48.504;9.224;2023-05-01T01:59:57;10.90;25.40
3256;DHT22;1640;48.504;9.224;2023-05-01T02:02:25;10.90;22.10
3256;DHT22;1640;48.504;9.224;2023-05-01T02:04:55;10.90;22.30
3256;DHT22;1640;48.504;9.224;2023-05-01T02:07:25;10.90;22.90
3256;DHT22;1640;48.504;9.224;2023-05-01T02:09:55;10.90;22.80
3256;DHT22;1640;48.504;9.224;2023-05-01T02:12:24;10.90;23.10
3256;DHT22;1640;48.504;9.224;2023-05-01T02:14:53;10.90;24.60
3256;DHT22;1640;48.504;9.224;2023-05-01T02:17:21;10.80;23.20
3256;DHT22;1640;48.504;9.224;2023-05-01T02:19:50;10.90;23.40
3256;DHT22;1640;48.504;9.224;2023-05-01T02:22:21;10.90;29.20
3256;DHT22;1640;48.504;9.224;2023-05-01T02:24:51;10.70;28.20
3256;DHT22;1640;48.504;9.224;2023-05-01T02:27:22;10.60;26.10
3256;DHT22;1640;48.504;9.224;2023-05-01T02:29:50;10.70;24.10
3256;DHT22;1640;48.504;9.224;2023-05-01T02:32:18;10.70;26.20
3256;DHT22;1640;48.504;9.224;2023-05-01T02:34:46;10.70;26.20
3256;DHT22;1640;48.504;9.224;2023-05-01T02:37:13;10.60;26.30
3256;DHT22;1640;48.504;9.224;2023-05-01T02:39:43;10.50;25.50
3256;DHT22;1640;48.504;9.224;2023-05-01T02:42:10;10.50;22.40
3256;DHT22;1640;48.504;9.224;2023-05-01T02:44:45;10.50;20.90
3256;DHT22;1640;48.504;9.224;2023-05-01T02:47:17;10.50;21.10
3256;DHT22;1640;48.504;9.224;2023-05-01T02:49:45;10.50;22.50
3256;DHT22;1640;48.504;9.224;2023-05-01T02:52:13;10.50;22.70
3256;DHT22;1640;48.504;9.224;2023-05-01T02:54:43;10.60;23.10
3256;DHT22;1640;48.504;9.224;2023-05-01T02:57:11;10.60;23.30
3256;DHT22;1640;48.504;9.224;2023-05-01T02:59:39;10.60;23.40
3256;DHT22;1640;48.504;9.224;2023-05-01T03:02:06;10.60;24.60
3256;DHT22;1640;48.504;9.224;2023-05-01T03:04:34;10.60;24.80
3256;DHT22;1640;48.504;9.224;2023-05-01T03:07:01;10.70;23.70
3256;DHT22;1640;48.504;9.224;2023-05-01T03:09:29;10.70;24.20
3256;DHT22;1640;48.504;9.224;2023-05-01T03:11:59;10.70;22.60
3256;DHT22;1640;48.504;9.224;2023-05-01T03:14:27;10.80;24.80
3256;DHT22;1640;48.504;9.224;2023-05-01T03:16:55;10.80;27.20
3256;DHT22;1640;48.504;9.224;2023-05-01T03:19:23;10.80;26.90
3256;DHT22;1640;48.504;9.224;2023-05-01T03:21:51;10.80;29.00
3256;DHT22;1640;48.504;9.224;2023-05-01T03:24:18;10.90;28.20
3256;DHT22;1640;48.504;9.224;2023-05-01T03:26:46;10.90;27.00
3256;DHT22;1640;48.504;9.224;2023-05-01T03:29:15;10.90;28.30
3256;DHT22;1640;48.504;9.224;2023-05-01T03:31:42;10.90;26.80
3256;DHT22;1640;48.504;9.224;2023-05-01T03:34:10;11.00;26.80
3256;DHT22;1640;48.504;9.224;2023-05-01T03:36:37;11.00;28.10
3256;DHT22;1640;48.504;9.224;2023-05-01T03:39:04;11.10;28.40
3256;DHT22;1640;48.504;9.224;2023-05-01T03:41:33;11.00;28.40
3256;DHT22;1640;48.504;9.224;2023-05-01T03:44:01;10.90;26.00
3256;DHT22;1640;48.504;9.224;2023-05-01T03:46:30;10.90;25.60
3256;DHT22;1640;48.504;9.224;2023-05-01T03:48:57;10.90;24.70
3256;DHT22;1640;48.504;9.224;2023-05-01T03:51:25;10.90;26.00
3256;DHT22;1640;48.504;9.224;2023-05-01T03:53:52;10.90;26.00
3256;DHT22;1640;48.504;9.224;2023-05-01T03:56:21;10.90;24.20
3256;DHT22;1640;48.504;9.224;2023-05-01T03:58:50;10.90;22.90
3256;DHT22;1640;48.504;9.224;2023-05-01T04:01:18;10.90;25.30
3256;DHT22;1640;48.504;9.224;2023-05-01T04:03:47;10.90;24.70
3256;DHT22;1640;48.504;9.224;2023-05-01T04:06:14;10.90;24.40
3256;DHT22;1640;48.504;9.224;2023-05-01T04:08:43;10.90;22.10
3256;DHT22;1640;48.504;9.224;2023-05-01T04:11:10;10.90;22.10
3256;DHT22;1640;48.504;9.224;2023-05-01T04:13:38;11.00;21.80
3256;DHT22;1640;48.504;9.224;2023-05-01T04:16:06;11.00;21.50
3256;DHT22;1640;48.504;9.224;2023-05-01T04:18:33;11.00;20.50
3256;DHT22;1640;48.504;9.224;2023-05-01T04:21:02;11.00;20.50
3256;DHT22;1640;48.504;9.224;2023-05-01T04:23:30;11.00;17.00
3256;DHT22;1640;48.504;9.224;2023-05-01T04:25:57;11.00;14.20
3256;DHT22;1640;48.504;9.224;2023-05-01T04:28:25;10.90;12.90
3256;DHT22;1640;48.504;9.224;2023-05-01T04:30:56;11.00;10.90
3256;DHT22;1640;48.504;9.224;2023-05-01T04:33:23;11.00;11.10
3256;DHT22;1640;48.504;9.224;2023-05-01T04:35:53;11.00;9.80
3256;DHT22;1640;48.504;9.224;2023-05-01T04:38:22;11.00;8.20
3256;DHT22;1640;48.504;9.224;2023-05-01T04:40:49;11.10;5.70
3256;DHT22;1640;48.504;9.224;2023-05-01T04:43:17;11.00;3.90
3256;DHT22;1640;48.504;9.224;2023-05-01T04:45:45;11.00;99.90
3256;DHT22;1640;48.504;9.224;2023-05-01T04:48:13;10.90;99.90
3256;DHT22;1640;48.504;9.224;2023-05-01T04:50:41;10.90;99.90
3256;DHT22;1640;48.504;9.224;2023-05-01T04:53:09;10.80;99.90
3256;DHT22;1640;48.504;9.224;2023-05-01T04:55:38;10.80;99.90
3256;DHT22;1640;48.504;9.224;2023-05-01T04:58:06;10.80;99.90
3256;DHT22;1640;48.504;9.224;2023-05-01T05:00:34;10.80;99.90
3256;DHT22;1640;48.504;9.224;2023-05-01T05:03:01;10.80;99.90
3256;DHT22;1640;48.504;9.224;2023-05-01T05:05:29;10.80;99.90
3256;DHT22;1640;48.504;9.224;2023-05-01T05:07:57;10.90;99.90
3256;DHT22;1640;48.504;9.224;2023-05-01T05:10:25;10.90;99.90
3256;DHT22;1640;48.504;9.224;2023-05-01T05:12:54;11.00;99.90
3256;DHT22;1640;48.504;9.224;2023-05-01T05:15:22;11.10;99.90
3256;DHT22;1640;48.504;9.224;2023-05-01T05:17:49;10.90;99.90
3256;DHT22;1640;48.504;9.224;2023-05-01T05:20:17;10.80;99.90
3256;DHT22;1640;48.504;9.224;2023-05-01T05:22:45;10.90;99.90
3256;DHT22;1640;48.504;9.224;2023-05-01T05:25:12;11.00;99.90
3256;DHT22;1640;48.504;9.224;2023-05-01T05:27:41;11.00;99.90
3256;DHT22;1640;48.504;9.224;2023-05-01T05:30:11;10.90;99.90
3256;DHT22;1640;48.504;9.224;2023-05-01T05:32:38;11.00;99.90
3256;DHT22;1640;48.504;9.224;2023-05-01T05:35:06;11.00;99.90
3256;DHT22;1640;48.504;9.224;2023-05-01T05:37:34;11.10;99.90
3256;DHT22;1640;48.504;9.224;2023-05-01T05:40:01;11.10;99.90
3256;DHT22;1640;48.504;9.224;2023-05-01T05:42:30;11.20;99.90
3256;DHT22;1640;48.504;9.224;2023-05-01T05:44:58;11.20;99.90
3256;DHT22;1640;48.504;9.224;2023-05-01T05:47:27;11.10;99.90
3256;DHT22;1640;48.504;9.224;2023-05-01T05:49:54;11.10;99.90
3256;DHT22;1640;48.504;9.224;2023-05-01T05:52:22;11.10;99.90
3256;DHT22;1640;48.504;9.224;2023-05-01T05:54:49;11.00;99.90
3256;DHT22;1640;48.504;9.224;2023-05-01T05:57:17;11.00;99.90
3256;DHT22;1640;48.504;9.224;2023-05-01T05:59:44;11.00;99.90
3256;DHT22;1640;48.504;9.224;2023-05-01T06:02:12;11.10;99.90
3256;DHT22;1640;48.504;9.224;2023-05-01T06:04:41;11.20;99.90
3256;DHT22;1640;48.504;9.224;2023-05-01T06:07:08;11.20;99.90
3256;DHT22;1640;48.504;9.224;2023-05-01T06:09:36;11.20;99.90
3256;DHT22;1640;48.504;9.224;2023-05-01T06:12:04;11.20;99.90
3256;DHT22;1640;48.504;9.224;2023-05-01T06:14:32;11.30;99.90
3256;DHT22;1640;48.504;9.224;2023-05-01T06:17:00;11.40;99.90
3256;DHT22;1640;48.504;9.224;2023-05-01T06:19:28;11.60;99.90
3256;DHT22;1640;48.504;9.224;2023-05-01T06:21:56;11.50;99.90
3256;DHT22;1640;48.504;9.224;2023-05-01T06:24:24;11.60;99.90
3256;DHT22;1640;48.504;9.224;2023-05-01T06:26:52;11.50;99.90
3256;DHT22;1640;48.504;9.224;2023-05-01T06:29:20;11.40;99.90
3256;DHT22;1640;48.504;9.224;2023-05-01T06:31:48;11.50;99.90
3256;DHT22;1640;48.504;9.224;2023-05-01T06:34:15;11.50;99.90
3256;DHT22;1640;48.504;9.224;2023-05-01T06:36:43;11.50;99.90
3256;DHT22;1640;48.504;9.224;2023-05-01T06:39:12;11.50;99.90
3256;DHT22;1640;48.504;9.224;2023-05-01T06:41:39;11.60;99.90
3256;DHT22;1640;48.504;9.224;2023-05-01T06:44:07;11.70;99.90
3256;DHT22;1640;48.504;9.224;2023-05-01T06:46:34;11.90;99.90
3256;DHT22;1640;48.504;9.224;2023-05-01T06:49:02;11.90;99.90
3256;DHT22;1640;48.504;9.224;2023-05-01T06:51:29;12.00;99.90
3256;DHT22;1640;48.504;9.224;2023-05-01T06:53:57;12.00;99.90
3256;DHT22;1640;48.504;9.224;2023-05-01T06:56:27;12.20;99.90
3256;DHT22;1640;48.504;9.224;2023-05-01T06:58:55;12.20;99.90
3256;DHT22;1640;48.504;9.224;2023-05-01T07:01:22;12.10;99.90
3256;DHT22;1640;48.504;9.224;2023-05-01T07:03:50;12.20;99.90
3256;DHT22;1640;48.504;9.224;2023-05-01T07:06:18;12.20;99.90
3256;DHT22;1640;48.504;9.224;2023-05-01T07:08:45;12.40;99.90
3256;DHT22;1640;48.504;9.224;2023-05-01T07:11:13;12.40;99.90
3256;DHT22;1640;48.504;9.224;2023-05-01T07:13:41;12.50;99.90
3256;DHT22;1640;48.504;9.224;2023-05-01T07:16:09;12.50;99.90
3256;DHT22;1640;48.504;9.224;2023-05-01T07:18:37;12.40;99.90
3256;DHT22;1640;48.504;9.224;2023-05-01T07:21:04;12.40;99.90
3256;DHT22;1640;48.504;9.224;2023-05-01T07:23:35;12.30;2.40
3256;DHT22;1640;48.504;9.224;2023-05-01T07:26:02;12.40;9.80
3256;DHT22;1640;48.504;9.224;2023-05-01T07:28:31;12.60;8.70
3256;DHT22;1640;48.504;9.224;2023-05-01T07:31:00;12.70;9.30
3256;DHT22;1640;48.504;9.224;2023-05-01T07:33:27;12.80;3.40
3256;DHT22;1640;48.504;9.224;2023-05-01T07:35:55;13.10;12.10
3256;DHT22;1640;48.504;9.224;2023-05-01T07:38:23;13.10;12.40
3256;DHT22;1640;48.504;9.224;2023-05-01T07:40:51;13.20;14.30
3256;DHT22;1640;48.504;9.224;2023-05-01T07:43:19;13.30;15.90
3256;DHT22;1640;48.504;9.224;2023-05-01T07:45:53;13.30;21.70
3256;DHT22;1640;48.504;9.224;2023-05-01T07:48:23;13.40;16.80
3256;DHT22;1640;48.504;9.224;2023-05-01T07:50:51;13.40;20.10
3256;DHT22;1640;48.504;9.224;2023-05-01T07:53:19;13.50;21.20
3256;DHT22;1640;48.504;9.224;2023-05-01T07:55:47;13.60;19.10
3256;DHT22;1640;48.504;9.224;2023-05-01T07:58:15;13.70;22.30
3256;DHT22;1640;48.504;9.224;2023-05-01T08:00:43;13.70;22.20
3256;DHT22;1640;48.504;9.224;2023-05-01T08:03:11;13.70;19.70
3256;DHT22;1640;48.504;9.224;2023-05-01T08:05:41;13.80;23.30
3256;DHT22;1640;48.504;9.224;2023-05-01T08:08:08;13.70;28.50
3256;DHT22;1640;48.504;9.224;2023-05-01T08:10:38;13.70;29.70
3256;DHT22;1640;48.504;9.224;2023-05-01T08:13:05;13.50;27.90
3256;DHT22;1640;48.504;9.224;2023-05-01T08:15:33;13.60;27.00
3256;DHT22;1640;48.504;9.224;2023-05-01T08:18:02;13.70;23.80
3256;DHT22;1640;48.504;9.224;2023-05-01T08:20:30;13.70;24.90
3256;DHT22;1640;48.504;9.224;2023-05-01T08:22:59;13.90;24.60
3256;DHT22;1640;48.504;9.224;2023-05-01T08:25:26;14.20;29.90
3256;DHT22;1640;48.504;9.224;2023-05-01T08:27:54;14.40;32.40
3256;DHT22;1640;48.504;9.224;2023-05-01T08:30:22;14.60;35.70
3256;DHT22;1640;48.504;9.224;2023-05-01T08:32:49;14.90;37.20
3256;DHT22;1640;48.504;9.224;2023-05-01T08:35:17;15.20;40.90
3256;DHT22;1640;48.504;9.224;2023-05-01T08:37:45;15.40;45.60
3256;DHT22;1640;48.504;9.224;2023-05-01T08:40:15;15.60;47.60
3256;DHT22;1640;48.504;9.224;2023-05-01T08:42:43;15.60;55.20
3256;DHT22;1640;48.504;9.224;2023-05-01T08:45:10;15.90;55.60
3256;DHT22;1640;48.504;9.224;2023-05-01T08:47:39;15.80;52.70
3256;DHT22;1640;48.504;9.224;2023-05-01T08:50:09;16.00;57.30
3256;DHT22;1640;48.504;9.224;2023-05-01T08:52:39;16.30;57.70
3256;DHT22;1640;48.504;9.224;2023-05-01T08:55:12;16.40;62.20
3256;DHT22;1640;48.504;9.224;2023-05-01T08:57:43;16.50;61.00
3256;DHT22;1640;48.504;9.224;2023-05-01T09:00:16;16.50;60.60
3256;DHT22;1640;48.504;9.224;2023-05-01T09:02:45;16.70;58.00
3256;DHT22;1640;48.504;9.224;2023-05-01T09:05:15;17.20;63.20
3256;DHT22;1640;48.504;9.224;2023-05-01T09:07:43;16.90;64.00
3256;DHT22;1640;48.504;9.224;2023-05-01T09:10:12;16.90;62.70
3256;DHT22;1640;48.504;9.224;2023-05-01T09:12:40;17.00;62.30
3256;DHT22;1640;48.504;9.224;2023-05-01T09:15:11;17.50;64.60
3256;DHT22;1640;48.504;9.224;2023-05-01T09:17:39;17.80;67.60
3256;DHT22;1640;48.504;9.224;2023-05-01T09:20:09;18.20;69.20
3256;DHT22;1640;48.504;9.224;2023-05-01T09:22:37;18.40;69.60
3256;DHT22;1640;48.504;9.224;2023-05-01T09:25:06;18.60;71.10
3256;DHT22;1640;48.504;9.224;2023-05-01T09:27:35;18.50;70.90
3256;DHT22;1640;48.504;9.224;2023-05-01T09:30:04;18.50;70.20
3256;DHT22;1640;48.504;9.224;2023-05-01T09:32:34;18.60;71.10
3256;DHT22;1640;48.504;9.224;2023-05-01T09:35:11;18.90;70.80
3256;DHT22;1640;48.504;9.224;2023-05-01T09:37:40;19.10;71.30
3256;DHT22;1640;48.504;9.224;2023-05-01T09:40:09;19.60;71.50
3256;DHT22;1640;48.504;9.224;2023-05-01T09:42:38;19.50;71.30
3256;DHT22;1640;48.504;9.224;2023-05-01T09:45:11;19.50;70.60
3256;DHT22;1640;48.504;9.224;2023-05-01T09:47:42;19.20;70.80
3256;DHT22;1640;48.504;9.224;2023-05-01T09:50:10;18.80;71.60
3256;DHT22;1640;48.504;9.224;2023-05-01T09:52:38;18.70;72.10
3256;DHT22;1640;48.504;9.224;2023-05-01T09:55:13;18.70;71.50
3256;DHT22;1640;48.504;9.224;2023-05-01T09:57:44;18.70;71.80
3256;DHT22;1640;48.504;9.224;2023-05-01T10:00:13;18.70;71.60
3256;DHT22;1640;48.504;9.224;2023-05-01T10:02:43;18.80;71.80
3256;DHT22;1640;48.504;9.224;2023-05-01T10:05:12;19.10;71.60
3256;DHT22;1640;48.504;9.224;2023-05-01T10:07:54;19.20;71.30
3256;DHT22;1640;48.504;9.224;2023-05-01T10:10:22;19.50;70.80
3256;DHT22;1640;48.504;9.224;2023-05-01T10:12:50;19.20;71.80
3256;DHT22;1640;48.504;9.224;2023-05-01T10:15:17;19.10;71.50
3256;DHT22;1640;48.504;9.224;2023-05-01T10:17:49;19.10;70.60
3256;DHT22;1640;48.504;9.224;2023-05-01T10:20:17;19.40;71.50
3256;DHT22;1640;48.504;9.224;2023-05-01T10:22:45;19.30;70.80
3256;DHT22;1640;48.504;9.224;2023-05-01T10:25:13;18.90;70.50
3256;DHT22;1640;48.504;9.224;2023-05-01T10:27:42;18.70;71.60
3256;DHT22;1640;48.504;9.224;2023-05-01T10:30:10;19.00;70.90
3256;DHT22;1640;48.504;9.224;2023-05-01T10:32:40;18.80;69.50
3256;DHT22;1640;48.504;9.224;2023-05-01T10:35:13;18.70;69.30
3256;DHT22;1640;48.504;9.224;2023-05-01T10:37:46;18.60;69.90
3256;DHT22;1640;48.504;9.224;2023-05-01T10:40:47;18.50;70.00
3256;DHT22;1640;48.504;9.224;2023-05-01T10:43:20;18.50;70.80
3256;DHT22;1640;48.504;9.224;2023-05-01T10:45:51;18.70;71.30
3256;DHT22;1640;48.504;9.224;2023-05-01T10:48:56;18.70;71.60
3256;DHT22;1640;48.504;9.224;2023-05-01T10:51:25;19.00;70.80
3256;DHT22;1640;48.504;9.224;2023-05-01T10:54:22;19.00;69.60
3256;DHT22;1640;48.504;9.224;2023-05-01T10:56:50;19.20;70.30
3256;DHT22;1640;48.504;9.224;2023-05-01T10:59:18;19.20;70.80
3256;DHT22;1640;48.504;9.224;2023-05-01T11:01:47;18.80;69.60
3256;DHT22;1640;48.504;9.224;2023-05-01T11:04:44;18.50;70.60
3256;DHT22;1640;48.504;9.224;2023-05-01T11:07:18;18.20;71.30
3256;DHT22;1640;48.504;9.224;2023-05-01T11:09:47;18.00;71.90
3256;DHT22;1640;48.504;9.224;2023-05-01T11:15:27;17.60;72.10
3256;DHT22;1640;48.504;9.224;2023-05-01T11:17:56;17.60;71.90
3256;DHT22;1640;48.504;9.224;2023-05-01T11:20:46;17.10;70.20
3256;DHT22;1640;48.504;9.224;2023-05-01T11:23:20;16.80;67.00
3256;DHT22;1640;48.504;9.224;2023-05-01T11:25:48;16.40;58.20
3256;DHT22;1640;48.504;9.224;2023-05-01T11:28:20;16.20;51.00
3256;DHT22;1640;48.504;9.224;2023-05-01T11:30:48;16.00;37.90
3256;DHT22;1640;48.504;9.224;2023-05-01T11:33:22;15.80;26.40
3256;DHT22;1640;48.504;9.224;2023-05-01T11:36:00;15.80;26.00
3256;DHT22;1640;48.504;9.224;2023-05-01T11:38:30;15.90;29.00
3256;DHT22;1640;48.504;9.224;2023-05-01T11:40:59;16.20;35.70
3256;DHT22;1640;48.504;9.224;2023-05-01T11:43:29;16.60;44.00
3256;DHT22;1640;48.504;9.224;2023-05-01T11:45:57;17.00;45.90
3256;DHT22;1640;48.504;9.224;2023-05-01T11:48:29;17.30;55.50
3256;DHT22;1640;48.504;9.224;2023-05-01T11:50:57;17.40;63.30
3256;DHT22;1640;48.504;9.224;2023-05-01T11:53:25;17.70;60.90
3256;DHT22;1640;48.504;9.224;2023-05-01T11:55:54;17.90;66.20
3256;DHT22;1640;48.504;9.224;2023-05-01T11:58:32;18.00;65.30
3256;DHT22;1640;48.504;9.224;2023-05-01T12:01:01;18.10;67.00
3256;DHT22;1640;48.504;9.224;2023-05-01T12:03:39;18.20;67.30
3256;DHT22;1640;48.504;9.224;2023-05-01T12:06:08;17.80;65.00
3256;DHT22;1640;48.504;9.224;2023-05-01T12:08:41;17.60;65.60
3256;DHT22;1640;48.504;9.224;2023-05-01T12:11:11;17.30;61.40
3256;DHT22;1640;48.504;9.224;2023-05-01T12:13:39;17.20;62.60
3256;DHT22;1640;48.504;9.224;2023-05-01T12:16:08;17.00;61.40
3256;DHT22;1640;48.504;9.224;2023-05-01T12:18:36;17.20;62.70
3256;DHT22;1640;48.504;9.224;2023-05-01T12:21:04;17.60;67.80
3256;DHT22;1640;48.504;9.224;2023-05-01T12:23:33;18.10;67.90
3256;DHT22;1640;48.504;9.224;2023-05-01T12:26:16;18.40;70.30
3256;DHT22;1640;48.504;9.224;2023-05-01T12:28:58;18.60;71.10
3256;DHT22;1640;48.504;9.224;2023-05-01T12:31:27;19.20;71.30
3256;DHT22;1640;48.504;9.224;2023-05-01T12:33:56;19.60;70.50
3256;DHT22;1640;48.504;9.224;2023-05-01T12:36:25;19.90;71.10
3256;DHT22;1640;48.504;9.224;2023-05-01T12:39:01;20.30;69.60
3256;DHT22;1640;48.504;9.224;2023-05-01T12:41:38;20.30;69.30
3256;DHT22;1640;48.504;9.224;2023-05-01T12:44:17;20.60;68.50
3256;DHT22;1640;48.504;9.224;2023-05-01T12:46:52;20.70;68.60
3256;DHT22;1640;48.504;9.224;2023-05-01T12:49:20;20.70;65.70
3256;DHT22;1640;48.504;9.224;2023-05-01T12:51:48;21.10;65.30
3256;DHT22;1640;48.504;9.224;2023-05-01T12:54:20;21.60;63.30
3256;DHT22;1640;48.504;9.224;2023-05-01T12:56:50;21.70;62.40
3256;DHT22;1640;48.504;9.224;2023-05-01T12:59:22;21.40;63.40
3256;DHT22;1640;48.504;9.224;2023-05-01T13:01:56;21.30;60.40
3256;DHT22;1640;48.504;9.224;2023-05-01T13:04:25;21.60;60.90
3256;DHT22;1640;48.504;9.224;2023-05-01T13:06:53;21.90;56.10
3256;DHT22;1640;48.504;9.224;2023-05-01T13:09:22;21.80;58.60
3256;DHT22;1640;48.504;9.224;2023-05-01T13:12:01;21.60;58.50
3256;DHT22;1640;48.504;9.224;2023-05-01T13:14:35;21.90;57.30
3256;DHT22;1640;48.504;9.224;2023-05-01T13:17:04;21.90;57.40
3256;DHT22;1640;48.504;9.224;2023-05-01T13:19:32;22.20;57.30
3256;DHT22;1640;48.504;9.224;2023-05-01T13:22:00;22.20;55.20
3256;DHT22;1640;48.504;9.224;2023-05-01T13:24:35;22.00;54.80
3256;DHT22;1640;48.504;9.224;2023-05-01T13:27:07;21.60;57.50
3256;DHT22;1640;48.504;9.224;2023-05-01T13:29:34;21.60;56.70
3256;DHT22;1640;48.504;9.224;2023-05-01T13:32:03;21.90;56.30
3256;DHT22;1640;48.504;9.224;2023-05-01T13:34:32;21.70;54.40
3256;DHT22;1640;48.504;9.224;2023-05-01T13:37:01;21.50;56.10
3256;DHT22;1640;48.504;9.224;2023-05-01T13:39:28;21.50;57.30
3256;DHT22;1640;48.504;9.224;2023-05-01T13:41:56;21.60;57.70
3256;DHT22;1640;48.504;9.224;2023-05-01T13:44:25;21.70;58.00
3256;DHT22;1640;48.504;9.224;2023-05-01T13:46:54;21.60;58.50
3256;DHT22;1640;48.504;9.224;2023-05-01T13:49:21;21.40;57.00
3256;DHT22;1640;48.504;9.224;2023-05-01T13:51:49;21.50;57.80
3256;DHT22;1640;48.504;9.224;2023-05-01T13:54:18;21.30;57.30
3256;DHT22;1640;48.504;9.224;2023-05-01T13:56:46;20.40;58.60
3256;DHT22;1640;48.504;9.224;2023-05-01T13:59:14;19.80;60.60
3256;DHT22;1640;48.504;9.224;2023-05-01T14:01:43;18.70;69.00
3256;DHT22;1640;48.504;9.224;2023-05-01T14:04:15;17.50;71.10
3256;DHT22;1640;48.504;9.224;2023-05-01T14:06:46;16.40;65.20
3256;DHT22;1640;48.504;9.224;2023-05-01T14:09:16;15.50;53.10
3256;DHT22;1640;48.504;9.224;2023-05-01T14:11:46;14.90;43.00
3256;DHT22;1640;48.504;9.224;2023-05-01T14:14:15;14.40;23.80
3256;DHT22;1640;48.504;9.224;2023-05-01T14:16:50;13.80;8.90
3256;DHT22;1640;48.504;9.224;2023-05-01T14:19:18;13.40;8.90
3256;DHT22;1640;48.504;9.224;2023-05-01T14:21:46;13.00;8.90
3256;DHT22;1640;48.504;9.224;2023-05-01T14:24:14;12.70;8.90
3256;DHT22;1640;48.504;9.224;2023-05-01T14:26:44;12.60;8.90
3256;DHT22;1640;48.504;9.224;2023-05-01T14:29:21;12.50;8.90
3256;DHT22;1640;48.504;9.224;2023-05-01T14:31:51;12.60;8.90
3256;DHT22;1640;48.504;9.224;2023-05-01T14:34:20;12.80;8.90
3256;DHT22;1640;48.504;9.224;2023-05-01T14:36:48;13.00;8.90
3256;DHT22;1640;48.504;9.224;2023-05-01T14:39:16;13.20;8.90
3256;DHT22;1640;48.504;9.224;2023-05-01T14:41:45;13.40;8.90
3256;DHT22;1640;48.504;9.224;2023-05-01T14:44:15;13.80;8.90
3256;DHT22;1640;48.504;9.224;2023-05-01T14:46:45;14.10;8.90
3256;DHT22;1640;48.504;9.224;2023-05-01T14:49:21;14.20;8.90
3256;DHT22;1640;48.504;9.224;2023-05-01T14:51:50;14.20;8.90
3256;DHT22;1640;48.504;9.224;2023-05-01T14:54:19;14.10;8.90
3256;DHT22;1640;48.504;9.224;2023-05-01T14:56:47;13.90;8.90
3256;DHT22;1640;48.504;9.224;2023-05-01T14:59:15;13.60;8.90
3256;DHT22;1640;48.504;9.224;2023-05-01T15:01:42;13.40;8.90
3256;DHT22;1640;48.504;9.224;2023-05-01T15:04:10;13.40;8.90
3256;DHT22;1640;48.504;9.224;2023-05-01T15:06:39;13.20;8.90
3256;DHT22;1640;48.504;9.224;2023-05-01T15:09:07;13.20;8.90
3256;DHT22;1640;48.504;9.224;2023-05-01T15:11:34;13.10;8.90
3256;DHT22;1640;48.504;9.224;2023-05-01T15:14:02;13.10;8.90
3256;DHT22;1640;48.504;9.224;2023-05-01T15:16:31;13.00;8.90
3256;DHT22;1640;48.504;9.224;2023-05-01T15:18:58;12.80;8.90
3256;DHT22;1640;48.504;9.224;2023-05-01T15:21:26;12.80;8.90
3256;DHT22;1640;48.504;9.224;2023-05-01T15:23:55;12.70;8.90
3256;DHT22;1640;48.504;9.224;2023-05-01T15:26:22;12.60;8.90
3256;DHT22;1640;48.504;9.224;2023-05-01T15:28:50;12.60;8.90
3256;DHT22;1640;48.504;9.224;2023-05-01T15:31:18;12.70;8.90
3256;DHT22;1640;48.504;9.224;2023-05-01T15:33:45;12.80;8.90
3256;DHT22;1640;48.504;9.224;2023-05-01T15:36:13;12.90;8.90
3256;DHT22;1640;48.504;9.224;2023-05-01T15:38:41;12.90;8.90
3256;DHT22;1640;48.504;9.224;2023-05-01T15:41:09;13.10;8.90
3256;DHT22;1640;48.504;9.224;2023-05-01T15:43:38;13.10;8.90
3256;DHT22;1640;48.504;9.224;2023-05-01T15:46:06;13.10;8.90
3256;DHT22;1640;48.504;9.224;2023-05-01T15:48:33;13.40;8.90
3256;DHT22;1640;48.504;9.224;2023-05-01T15:51:01;13.60;8.90
3256;DHT22;1640;48.504;9.224;2023-05-01T15:53:29;13.90;8.90
3256;DHT22;1640;48.504;9.224;2023-05-01T15:55:57;14.30;8.90
3256;DHT22;1640;48.504;9.224;2023-05-01T15:58:26;14.60;8.90
3256;DHT22;1640;48.504;9.224;2023-05-01T16:00:54;14.60;8.90
3256;DHT22;1640;48.504;9.224;2023-05-01T16:03:21;14.90;8.90
3256;DHT22;1640;48.504;9.224;2023-05-01T16:05:49;15.20;8.90
3256;DHT22;1640;48.504;9.224;2023-05-01T16:08:17;15.70;8.90
3256;DHT22;1640;48.504;9.224;2023-05-01T16:10:45;16.30;8.90
3256;DHT22;1640;48.504;9.224;2023-05-01T16:13:13;17.00;99.90
3256;DHT22;1640;48.504;9.224;2023-05-01T16:15:42;17.90;32.00
3256;DHT22;1640;48.504;9.224;2023-05-01T16:18:15;19.10;49.30
3256;DHT22;1640;48.504;9.224;2023-05-01T16:20:44;19.20;61.10
3256;DHT22;1640;48.504;9.224;2023-05-01T16:23:13;19.70;61.40
3256;DHT22;1640;48.504;9.224;2023-05-01T16:25:41;20.60;65.70